Time;durP1;ratioP1;P1;durP2;ratioP2;P2;SDS_P1;SDS_P2;PMS_P1;PMS_P2;Temp;Humidity;BMP_temperature;BMP_pressure;BME280_temperature;BME280_humidity;BME280_pressure;Samples;Min_cycle;Max_cycle;Signal;HPM_P1;HPM_P2
2023/03/17 00:00:16;;;;;;;4.18;2.28;;;;;;;6.58;100.00;98517.44;5005936;28;20488;-76
2023/03/17 00:02:44;;;;;;;4.45;2.40;;;;;;;6.72;100.00;98519.28;4992904;28;20402;-76
2023/03/17 00:05:18;;;;;;;3.87;2.20;;;;;;;6.72;100.00;98505.84;4984857;28;20022;-76
2023/03/17 00:07:45;;;;;;;4.32;2.03;;;;;;;6.53;100.00;98488.41;4992388;28;20053;-76
2023/03/17 00:10:18;;;;;;;3.55;1.88;;;;;;;6.53;100.00;98499.16;5004081;28;20043;-76
2023/03/17 00:12:44;;;;;;;6.18;2.30;;;;;;;6.58;100.00;98490.56;4999686;28;20022;-76
2023/03/17 00:15:11;;;;;;;4.18;2.40;;;;;;;6.56;100.00;98488.03;5015543;28;20081;-76
2023/03/17 00:17:36;;;;;;;5.10;2.58;;;;;;;6.54;100.00;98475.81;5011092;28;20037;-76
2023/03/17 00:20:04;;;;;;;7.68;2.60;;;;;;;6.58;100.00;98477.13;5011407;28;20382;-76
2023/03/17 00:22:29;;;;;;;6.43;2.25;;;;;;;6.56;100.00;98471.09;5001225;28;20032;-76
2023/03/17 00:24:54;;;;;;;4.18;2.20;;;;;;;6.52;100.00;98440.22;5014878;28;20105;-76
2023/03/17 00:27:20;;;;;;;5.53;2.45;;;;;;;6.55;100.00;98439.88;4997002;28;20025;-76
2023/03/17 00:29:46;;;;;;;6.40;2.10;;;;;;;6.76;100.00;98469.50;5013411;28;20110;-76
2023/03/17 00:32:20;;;;;;;5.25;2.30;;;;;;;6.76;100.00;98458.75;4989733;28;20033;-76
2023/03/17 00:34:46;;;;;;;4.72;2.13;;;;;;;6.68;100.00;98458.84;5008693;28;20527;-76
2023/03/17 00:37:11;;;;;;;4.25;1.73;;;;;;;6.76;100.00;98474.88;5014013;28;20117;-76
2023/03/17 00:39:38;;;;;;;4.05;2.15;;;;;;;6.66;100.00;98455.50;4991635;28;20082;-76
2023/03/17 00:42:05;;;;;;;6.07;2.72;;;;;;;6.80;100.00;98468.09;5031047;28;20036;-76
2023/03/17 00:44:30;;;;;;;3.58;2.17;;;;;;;6.66;100.00;98447.44;5011241;28;20083;-76
2023/03/17 00:46:56;;;;;;;3.67;2.25;;;;;;;6.61;100.00;98431.03;4991420;28;20026;-75
2023/03/17 00:49:23;;;;;;;4.75;2.42;;;;;;;6.75;100.00;98438.25;4992896;28;20092;-75
2023/03/17 00:51:50;;;;;;;6.53;2.38;;;;;;;6.83;100.00;98455.28;5025089;23;20062;-78
2023/03/17 00:54:16;;;;;;;4.85;2.22;;;;;;;6.79;100.00;98458.38;5030320;28;20026;-80
2023/03/17 00:56:43;;;;;;;3.47;1.92;;;;;;;6.82;100.00;98451.78;5003987;28;20021;-80
2023/03/17 00:59:24;;;;;;;4.57;2.40;;;;;;;6.66;100.00;98455.50;5021118;28;20482;-80
2023/03/17 01:01:50;;;;;;;3.88;1.80;;;;;;;6.49;100.00;98454.03;5029184;28;20470;-79
2023/03/17 01:04:15;;;;;;;4.35;2.45;;;;;;;6.29;100.00;98449.22;5016122;28;20175;-79
2023/03/17 01:06:42;;;;;;;5.07;2.42;;;;;;;6.16;100.00;98438.28;5012964;28;20064;-80
2023/03/17 01:09:11;;;;;;;4.43;1.95;;;;;;;5.90;100.00;98438.69;5015672;28;20030;-80
2023/03/17 01:11:37;;;;;;;3.47;2.03;;;;;;;5.93;100.00;98441.84;5034586;28;20049;-80
2023/03/17 01:14:02;;;;;;;3.80;2.70;;;;;;;5.72;100.00;98415.69;5033472;28;20028;-81
2023/03/17 01:16:27;;;;;;;4.93;2.55;;;;;;;5.73;100.00;98440.66;5043859;28;20041;-79
2023/03/17 01:18:53;;;;;;;4.47;2.30;;;;;;;5.47;100.00;98412.34;5013962;28;20030;-80
2023/03/17 01:21:19;;;;;;;4.10;2.50;;;;;;;5.26;100.00;98378.16;5032554;28;20030;-81
2023/03/17 01:23:44;;;;;;;5.15;1.98;;;;;;;5.64;100.00;98431.84;5026090;28;20475;-80
2023/03/17 01:26:10;;;;;;;3.53;2.30;;;;;;;5.66;100.00;98421.78;5015049;28;20026;-80
2023/03/17 01:28:36;;;;;;;2.90;2.05;;;;;;;5.68;100.00;98432.31;5011524;28;20033;-80
2023/03/17 01:31:02;;;;;;;3.28;1.95;;;;;;;5.74;100.00;98434.31;5013939;28;20025;-81
2023/03/17 01:33:28;;;;;;;3.83;2.10;;;;;;;5.59;100.00;98430.72;5016374;28;20033;-80
2023/03/17 01:35:53;;;;;;;4.40;2.53;;;;;;;5.59;100.00;98420.00;5019559;28;20089;-80
2023/03/17 01:38:18;;;;;;;4.07;2.20;;;;;;;5.61;100.00;98434.09;5011757;28;20026;-80
2023/03/17 01:40:48;;;;;;;5.72;2.10;;;;;;;5.75;100.00;98435.13;5016310;28;20017;-80
2023/03/17 01:43:21;;;;;;;4.13;2.20;;;;;;;5.68;100.00;98422.41;5034176;28;20108;-80
2023/03/17 01:46:05;;;;;;;4.30;2.17;;;;;;;5.77;100.00;98423.19;5011958;28;20591;-80
2023/03/17 01:48:37;;;;;;;3.28;2.03;;;;;;;5.69;100.00;98425.94;5008220;28;20028;-79
2023/03/17 01:51:05;;;;;;;3.42;1.98;;;;;;;5.57;100.00;98408.59;5015589;28;20044;-80
2023/03/17 01:53:31;;;;;;;3.42;2.25;;;;;;;5.44;100.00;98396.63;5031587;28;20025;-80
2023/03/17 01:55:56;;;;;;;6.22;2.03;;;;;;;5.51;100.00;98399.44;5027509;28;20630;-80
2023/03/17 01:58:24;;;;;;;3.92;2.10;;;;;;;5.66;100.00;98418.28;5012647;28;20032;-80
2023/03/17 02:00:50;;;;;;;3.88;2.28;;;;;;;5.65;100.00;98422.78;5014834;28;20030;-80
2023/03/17 02:03:16;;;;;;;3.70;2.00;;;;;;;5.61;100.00;98413.44;5019644;28;20033;-79
2023/03/17 02:05:42;;;;;;;3.53;2.03;;;;;;;5.61;100.00;98402.69;5014910;28;20029;-80
2023/03/17 02:08:28;;;;;;;3.40;2.03;;;;;;;5.68;100.00;98403.63;5022080;28;20027;-79
2023/03/17 02:10:56;;;;;;;3.25;1.77;;;;;;;5.67;100.00;98396.59;5015732;28;20395;-80
2023/03/17 02:13:21;;;;;;;4.47;1.90;;;;;;;5.63;100.00;98395.31;5013834;28;20026;-80
2023/03/17 02:15:49;;;;;;;3.75;2.00;;;;;;;5.65;100.00;98398.63;5014421;28;20052;-80
2023/03/17 02:18:17;;;;;;;4.05;1.90;;;;;;;5.58;100.00;98389.66;5031781;28;20028;-80
2023/03/17 02:21:05;;;;;;;4.85;2.28;;;;;;;5.54;100.00;98390.19;5015631;28;20025;-78
2023/03/17 02:23:31;;;;;;;2.10;1.33;;;;;;;5.42;100.00;98374.53;5002543;28;20026;-78
2023/03/17 02:25:56;;;;;;;4.78;2.10;;;;;;;5.23;100.00;98353.56;5019205;28;20032;-79
2023/03/17 02:28:27;;;;;;;5.97;1.90;;;;;;;5.37;100.00;98384.97;5025629;28;20076;-77
2023/03/17 02:30:52;;;;;;;3.75;1.98;;;;;;;5.33;100.00;98372.09;5028898;28;20032;-79
2023/03/17 02:33:18;;;;;;;4.15;2.10;;;;;;;5.32;100.00;98387.38;5014666;28;20025;-79
2023/03/17 02:35:43;;;;;;;4.28;1.67;;;;;;;5.23;100.00;98383.88;5026501;28;20518;-78
2023/03/17 02:38:09;;;;;;;3.70;1.80;;;;;;;5.19;100.00;98377.22;5033624;28;20060;-78
2023/03/17 02:40:35;;;;;;;5.07;2.35;;;;;;;5.24;100.00;98388.25;5047374;28;20096;-78
2023/03/17 02:43:01;;;;;;;3.35;2.30;;;;;;;5.09;100.00;98368.59;5017518;28;20403;-77
2023/03/17 02:45:26;;;;;;;4.28;2.10;;;;;;;5.07;100.00;98377.81;5029154;28;20034;-78
2023/03/17 02:47:53;;;;;;;3.40;2.00;;;;;;;5.01;100.00;98377.53;5033937;28;20037;-78
2023/03/17 02:50:22;;;;;;;4.22;2.13;;;;;;;5.19;100.00;98405.91;5020185;28;20033;-78
2023/03/17 02:52:48;;;;;;;5.20;1.85;;;;;;;5.26;100.00;98394.25;5041055;28;20059;-78
2023/03/17 02:55:13;;;;;;;5.57;2.10;;;;;;;5.32;100.00;98384.69;5017589;28;20545;-79
2023/03/17 02:57:39;;;;;;;5.32;2.28;;;;;;;5.38;100.00;98386.63;5018292;28;20026;-79
2023/03/17 03:00:07;;;;;;;3.20;1.83;;;;;;;5.42;100.00;98390.63;5013958;28;20029;-78
2023/03/17 03:02:32;;;;;;;4.85;2.45;;;;;;;5.35;100.00;98378.94;5017919;28;20032;-78
2023/03/17 03:04:57;;;;;;;5.35;2.40;;;;;;;5.19;100.00;98376.41;5008832;28;20021;-78
2023/03/17 03:07:22;;;;;;;4.95;2.67;;;;;;;5.13;100.00;98393.19;5013913;28;20022;-78
2023/03/17 03:09:48;;;;;;;5.70;2.70;;;;;;;4.89;100.00;98381.63;5014868;28;20021;-78
2023/03/17 03:12:13;;;;;;;5.10;2.67;;;;;;;4.80;100.00;98383.53;5037690;28;20059;-78
2023/03/17 03:14:39;;;;;;;8.75;2.45;;;;;;;4.63;100.00;98371.22;5017374;28;20120;-78
2023/03/17 03:17:04;;;;;;;5.07;2.40;;;;;;;4.67;100.00;98393.16;5016219;28;20032;-77
2023/03/17 03:19:30;;;;;;;3.90;2.25;;;;;;;4.54;100.00;98367.75;5046220;28;20024;-78
2023/03/17 03:21:55;;;;;;;6.90;2.60;;;;;;;4.55;100.00;98382.81;5012994;28;20056;-78
2023/03/17 03:24:21;;;;;;;5.22;2.92;;;;;;;4.55;100.00;98377.47;5023187;28;20025;-78
2023/03/17 03:26:47;;;;;;;5.35;2.70;;;;;;;4.53;100.00;98365.25;5019883;28;20672;-79
2023/03/17 03:29:12;;;;;;;5.43;2.60;;;;;;;4.52;100.00;98369.78;5034958;28;20025;-79
2023/03/17 03:31:37;;;;;;;4.22;2.63;;;;;;;4.47;100.00;98366.78;5047485;28;20035;-77
2023/03/17 03:34:03;;;;;;;3.67;2.42;;;;;;;4.50;100.00;98376.31;5033788;28;20029;-77
2023/03/17 03:36:28;;;;;;;4.60;2.80;;;;;;;4.39;100.00;98375.69;5057581;28;20005;-77
2023/03/17 03:38:54;;;;;;;3.83;2.10;;;;;;;4.20;100.00;98360.06;5037466;28;20017;-78
2023/03/17 03:41:19;;;;;;;4.00;2.60;;;;;;;4.40;100.00;98376.53;5037367;28;20030;-77
2023/03/17 03:43:44;;;;;;;4.13;2.33;;;;;;;4.53;100.00;98392.91;5054044;28;20105;-78
2023/03/17 03:46:10;;;;;;;3.35;2.00;;;;;;;4.45;100.00;98374.16;5039274;28;20010;-77
2023/03/17 03:48:35;;;;;;;4.70;2.72;;;;;;;4.50;100.00;98393.22;5040105;28;20013;-78
2023/03/17 03:51:01;;;;;;;3.28;2.08;;;;;;;4.39;100.00;98386.41;5050337;28;20289;-76
2023/03/17 03:53:28;;;;;;;7.18;2.28;;;;;;;4.24;100.00;98381.97;5039419;28;20021;-80
2023/03/17 03:55:54;;;;;;;5.15;2.20;;;;;;;4.11;100.00;98391.38;5047337;28;20040;-81
2023/03/17 03:58:20;;;;;;;5.35;2.50;;;;;;;3.97;100.00;98389.41;5024879;28;20025;-81
2023/03/17 04:00:46;;;;;;;8.57;2.33;;;;;;;3.90;100.00;98391.09;5016788;28;20478;-81
2023/03/17 04:03:12;;;;;;;5.20;2.53;;;;;;;3.81;100.00;98381.44;5011149;28;20274;-81
2023/03/17 04:05:37;;;;;;;7.72;2.70;;;;;;;3.89;100.00;98384.09;5035386;28;20030;-80
2023/03/17 04:08:03;;;;;;;4.70;2.15;;;;;;;3.94;100.00;98379.06;5036407;28;20408;-79
2023/03/17 04:10:28;;;;;;;3.92;2.47;;;;;;;3.89;100.00;98379.56;5022524;28;20021;-79
2023/03/17 04:12:54;;;;;;;4.57;2.40;;;;;;;3.83;100.00;98382.09;5019373;28;20112;-81
2023/03/17 04:15:21;;;;;;;6.80;2.67;;;;;;;3.61;100.00;98360.38;5038483;28;20466;-79
2023/03/17 04:17:53;;;;;;;4.47;2.75;;;;;;;3.40;100.00;98330.66;5030980;28;20029;-79
2023/03/17 04:27:34;;;;;;;5.28;2.60;;;;;;;3.50;100.00;98379.47;5052858;28;20117;-81
2023/03/17 04:37:08;;;;;;;3.80;2.53;;;;;;;3.06;100.00;98312.97;4981351;28;20160;-78
2023/03/17 04:46:54;;;;;;;5.05;2.83;;;;;;;3.21;100.00;98380.81;4885300;29;20076;-81
2023/03/17 04:49:20;;;;;;;4.13;2.50;;;;;;;3.11;100.00;98374.78;5010343;28;20061;-69
2023/03/17 04:51:45;;;;;;;7.25;2.85;;;;;;;3.02;100.00;98375.81;5009758;28;20026;-69
2023/03/17 04:54:11;;;;;;;4.82;2.28;;;;;;;3.00;100.00;98364.44;5017363;28;20033;-69
2023/03/17 04:56:36;;;;;;;4.25;2.30;;;;;;;3.12;100.00;98365.78;5013540;28;20034;-69
2023/03/17 04:59:02;;;;;;;6.20;2.72;;;;;;;3.12;100.00;98362.25;5004241;28;20096;-69
2023/03/17 05:01:28;;;;;;;6.68;3.05;;;;;;;3.08;100.00;98367.94;4992629;28;20018;-69
2023/03/17 05:03:54;;;;;;;5.55;3.25;;;;;;;3.05;100.00;98354.09;5004088;28;20037;-68
2023/03/17 05:06:20;;;;;;;9.02;3.78;;;;;;;2.89;100.00;98348.75;5009408;28;20026;-68
2023/03/17 05:08:46;;;;;;;9.05;3.50;;;;;;;2.77;100.00;98353.56;5008654;28;20029;-68
2023/03/17 05:11:12;;;;;;;7.30;3.08;;;;;;;2.62;100.00;98359.53;5017413;28;20061;-68
2023/03/17 05:13:39;;;;;;;8.65;3.08;;;;;;;2.57;100.00;98350.38;5013237;28;20576;-68
2023/03/17 05:16:06;;;;;;;5.78;3.22;;;;;;;2.55;100.00;98352.34;5014890;28;20109;-68
2023/03/17 05:18:32;;;;;;;6.32;3.13;;;;;;;2.47;100.00;98349.66;4997949;28;20026;-68
2023/03/17 05:20:59;;;;;;;5.90;3.15;;;;;;;2.49;100.00;98350.31;5016770;28;20038;-68
2023/03/17 05:23:25;;;;;;;5.68;2.92;;;;;;;2.50;100.00;98349.34;4995864;28;20058;-68
2023/03/17 05:25:51;;;;;;;8.35;3.28;;;;;;;2.50;100.00;98344.81;5024737;28;20107;-68
2023/03/17 05:28:18;;;;;;;5.95;2.88;;;;;;;2.67;100.00;98356.34;5019709;28;20029;-68
2023/03/17 05:30:44;;;;;;;6.65;3.20;;;;;;;2.69;100.00;98349.03;5012919;28;20075;-69
2023/03/17 05:33:10;;;;;;;7.20;3.42;;;;;;;2.69;100.00;98356.22;5003034;28;20022;-70
2023/03/17 05:35:36;;;;;;;6.13;2.92;;;;;;;2.66;100.00;98359.22;5012536;28;20180;-70
2023/03/17 05:38:01;;;;;;;5.72;3.03;;;;;;;2.75;100.00;98374.25;5010089;28;20033;-70
2023/03/17 05:40:26;;;;;;;5.63;2.88;;;;;;;2.72;100.00;98374.56;4999603;28;20504;-70
2023/03/17 05:42:52;;;;;;;4.65;2.17;;;;;;;2.83;100.00;98388.47;5011551;28;20029;-69
2023/03/17 05:45:17;;;;;;;3.88;2.50;;;;;;;2.91;100.00;98390.31;5010093;28;20027;-69
2023/03/17 05:47:44;;;;;;;4.97;2.80;;;;;;;2.90;100.00;98388.63;4991356;28;20113;-71
2023/03/17 05:50:11;;;;;;;4.15;2.50;;;;;;;2.95;100.00;98386.31;5016477;28;20164;-70
2023/03/17 05:52:37;;;;;;;4.78;2.50;;;;;;;3.12;100.00;98378.28;5009467;28;20025;-70
2023/03/17 05:55:04;;;;;;;4.57;2.42;;;;;;;3.28;100.00;98367.63;5009776;28;20130;-70
2023/03/17 05:57:30;;;;;;;4.50;2.20;;;;;;;3.54;100.00;98364.75;5006299;28;20478;-70
2023/03/17 05:59:56;;;;;;;3.47;2.13;;;;;;;3.73;100.00;98364.38;5008165;28;20117;-70
2023/03/17 06:02:22;;;;;;;7.88;3.05;;;;;;;3.82;100.00;98367.84;5012502;28;20117;-70
2023/03/17 06:04:47;;;;;;;4.18;2.47;;;;;;;3.91;100.00;98366.03;4993488;28;20061;-70
2023/03/17 06:07:13;;;;;;;5.53;3.03;;;;;;;3.94;100.00;98350.44;4995143;28;20025;-70
2023/03/17 06:09:39;;;;;;;4.97;2.80;;;;;;;4.03;100.00;98355.75;5017237;28;20030;-70
2023/03/17 06:12:05;;;;;;;6.55;2.97;;;;;;;4.23;100.00;98357.03;5017858;28;20029;-70
2023/03/17 06:14:31;;;;;;;5.53;2.50;;;;;;;5.14;100.00;98342.06;5004618;28;20026;-69
2023/03/17 06:16:56;;;;;;;8.45;3.42;;;;;;;6.96;100.00;98351.41;5013909;28;20087;-70
2023/03/17 06:19:22;;;;;;;6.18;2.90;;;;;;;8.87;100.00;98349.34;4999898;28;20099;-70
2023/03/17 06:21:49;;;;;;;5.95;2.85;;;;;;;10.79;98.87;98349.34;5008578;28;20044;-70
2023/03/17 06:24:15;;;;;;;7.05;3.20;;;;;;;10.91;89.46;98350.34;5011131;28;20029;-69
2023/03/17 06:26:41;;;;;;;7.45;3.38;;;;;;;11.46;82.93;98353.31;4998844;28;20469;-70
2023/03/17 06:29:40;;;;;;;7.05;3.30;;;;;;;12.46;77.33;98350.50;4995810;28;20022;-69
2023/03/17 06:32:08;;;;;;;6.05;3.00;;;;;;;12.34;72.97;98357.75;4988085;28;20033;-69
2023/03/17 06:37:03;;;;;;;8.32;3.20;;;;;;;10.40;82.60;98370.97;5035638;22;20037;-72
2023/03/17 06:39:29;;;;;;;12.60;3.05;;;;;;;9.92;93.95;98370.41;5053277;28;20035;-72
2023/03/17 06:41:55;;;;;;;7.88;2.88;;;;;;;10.14;93.97;98365.56;5046825;28;20410;-76
2023/03/17 06:44:23;;;;;;;6.53;3.03;;;;;;;11.25;83.83;98357.22;5027604;28;20078;-75
2023/03/17 06:46:49;;;;;;;7.67;2.93;;;;;;;11.49;78.95;98342.03;5045299;28;20024;-77
2023/03/17 06:49:15;;;;;;;4.63;2.65;;;;;;;11.78;74.83;98353.25;5044273;28;20707;-80
2023/03/17 06:51:40;;;;;;;6.65;2.40;;;;;;;13.00;68.88;98344.41;5039159;28;20025;-78
2023/03/17 06:54:07;;;;;;;6.07;3.10;;;;;;;13.81;66.57;98342.97;5027934;28;20032;-78
2023/03/17 06:56:33;;;;;;;6.95;4.03;;;;;;;14.36;64.94;98339.84;5033761;28;20100;-77
2023/03/17 06:59:44;;;;;;;14.50;4.68;;;;;;;15.99;58.16;98339.34;5058281;28;20060;-81
2023/03/17 07:02:10;;;;;;;15.93;5.40;;;;;;;18.55;51.00;98325.53;5048638;28;20106;-80
2023/03/17 07:04:37;;;;;;;24.88;5.78;;;;;;;19.92;47.43;98321.44;5015024;22;20472;-69
2023/03/17 07:07:04;;;;;;;16.50;4.90;;;;;;;20.91;43.23;98328.34;4975412;28;21202;-68
2023/03/17 07:09:33;;;;;;;8.05;3.55;;;;;;;20.28;41.54;98337.88;4981348;28;20576;-68
2023/03/17 07:12:03;;;;;;;11.35;4.13;;;;;;;19.46;41.98;98345.28;4972748;28;20553;-68
2023/03/17 07:14:32;;;;;;;9.98;4.10;;;;;;;19.65;42.78;98348.31;4975961;28;20042;-70
2023/03/17 07:16:58;;;;;;;9.15;4.10;;;;;;;19.11;42.86;98341.38;4973488;28;20050;-69
2023/03/17 07:19:25;;;;;;;11.50;5.50;;;;;;;20.28;43.17;98342.53;4967589;28;20037;-68
2023/03/17 07:21:54;;;;;;;9.50;4.78;;;;;;;20.67;42.17;98342.75;4976839;28;20038;-69
2023/03/17 07:24:20;;;;;;;;;;;;;;;20.43;41.58;98347.16;4970801;28;20027;-70
2023/03/17 07:26:45;;;;;;;10.20;4.43;;;;;;;19.71;42.11;98352.75;4969249;28;19914;-70
2023/03/17 07:29:11;;;;;;;10.55;3.60;;;;;;;20.25;41.82;98351.31;4990404;28;20064;-70
2023/03/17 07:31:37;;;;;;;6.18;3.50;;;;;;;19.25;42.32;98355.38;4973604;28;20062;-67
2023/03/17 07:34:05;;;;;;;13.73;3.63;;;;;;;19.25;42.49;98355.38;4979893;28;20033;-68
2023/03/17 07:36:31;;;;;;;12.13;3.65;;;;;;;18.93;43.16;98359.13;4974034;28;20110;-69
2023/03/17 07:38:56;;;;;;;12.27;3.45;;;;;;;18.43;44.46;98367.91;4983266;28;20165;-70
2023/03/17 07:41:22;;;;;;;9.00;3.40;;;;;;;17.43;46.06;98363.00;4970869;28;20540;-69
2023/03/17 07:43:47;;;;;;;9.88;3.00;;;;;;;16.94;47.57;98365.75;4972006;28;20034;-70
2023/03/17 07:46:13;;;;;;;7.10;3.08;;;;;;;16.39;49.17;98348.38;4971193;28;20177;-67
2023/03/17 07:48:41;;;;;;;11.18;3.30;;;;;;;16.81;50.26;98358.78;4974603;28;20101;-70
2023/03/17 07:51:12;;;;;;;10.32;2.78;;;;;;;16.69;50.47;98347.09;4981365;28;20382;-66
2023/03/17 07:53:37;;;;;;;8.65;3.22;;;;;;;16.01;52.37;98350.03;4985378;28;20022;-66
2023/03/17 07:56:03;;;;;;;7.45;2.80;;;;;;;16.78;51.77;98351.09;4978865;28;20034;-67
2023/03/17 07:58:28;;;;;;;8.70;2.60;;;;;;;17.51;49.20;98343.41;4986252;28;20041;-66
2023/03/17 08:00:55;;;;;;;6.18;2.67;;;;;;;17.95;46.49;98340.50;4981145;28;20478;-69
2023/03/17 08:03:21;;;;;;;6.63;2.70;;;;;;;18.90;45.30;98348.72;4979908;28;20444;-66
2023/03/17 08:05:56;;;;;;;8.30;2.80;;;;;;;18.95;45.53;98345.16;4984159;28;20168;-66
2023/03/17 08:08:26;;;;;;;6.30;3.10;;;;;;;18.47;45.67;98339.75;4981230;28;20026;-66
2023/03/17 08:11:00;;;;;;;7.32;3.42;;;;;;;17.74;47.65;98342.22;4970287;28;20038;-66
2023/03/17 08:13:26;;;;;;;7.30;3.10;;;;;;;16.70;50.25;98326.94;4984102;28;20038;-66
2023/03/17 08:16:04;;;;;;;8.23;3.20;;;;;;;17.68;49.78;98341.38;4988421;28;20060;-66
2023/03/17 08:18:29;;;;;;;9.07;2.53;;;;;;;20.09;45.03;98340.34;4989784;28;20343;-68
2023/03/17 08:21:05;;;;;;;6.75;3.03;;;;;;;24.17;38.93;98323.03;4978841;28;20312;-69
2023/03/17 08:23:55;;;;;;;6.10;2.60;;;;;;;26.92;34.51;98325.22;4977376;28;20072;-69
2023/03/17 08:26:22;;;;;;;5.85;2.35;;;;;;;28.31;32.08;98336.38;4982216;28;20066;-68
2023/03/17 08:28:51;;;;;;;10.77;2.35;;;;;;;29.90;30.88;98314.47;4978612;28;20073;-70
2023/03/17 08:31:19;;;;;;;5.55;2.47;;;;;;;29.85;29.95;98317.47;4977266;28;20089;-70
2023/03/17 08:33:47;;;;;;;3.75;2.13;;;;;;;28.44;31.05;98317.84;4968651;28;20395;-70
2023/03/17 08:36:13;;;;;;;7.20;2.80;;;;;;;28.25;30.74;98306.28;4974439;28;20061;-70
2023/03/17 08:38:41;;;;;;;4.47;2.00;;;;;;;26.64;30.57;98305.22;4995239;28;20038;-70
2023/03/17 08:41:12;;;;;;;6.93;2.03;;;;;;;27.75;29.54;98310.44;4978542;28;20065;-70
2023/03/17 08:43:39;;;;;;;6.75;1.70;;;;;;;27.71;28.02;98318.59;4977081;28;20105;-71
2023/03/17 08:46:08;;;;;;;2.80;1.80;;;;;;;25.96;29.45;98315.63;4989218;28;20462;-71
2023/03/17 08:48:36;;;;;;;4.80;1.65;;;;;;;26.50;28.80;98304.50;4975463;28;20054;-70
2023/03/17 08:51:02;;;;;;;2.95;1.73;;;;;;;26.55;27.83;98288.53;4983044;28;20033;-70
2023/03/17 08:53:27;;;;;;;3.72;1.67;;;;;;;27.08;27.05;98303.38;4985472;28;20025;-70
2023/03/17 08:56:01;;;;;;;2.22;1.30;;;;;;;28.12;25.96;98311.72;4992716;28;20473;-70
2023/03/17 08:58:27;;;;;;;2.13;1.45;;;;;;;27.65;26.03;98288.56;4990266;28;20022;-70
2023/03/17 09:00:59;;;;;;;3.63;1.45;;;;;;;30.42;24.51;98284.38;4981460;28;20112;-65
2023/03/17 09:03:27;;;;;;;2.15;1.42;;;;;;;28.65;25.07;98294.84;4965498;28;20026;-65
2023/03/17 09:05:53;;;;;;;3.78;1.80;;;;;;;27.49;26.14;98297.38;4978032;28;20473;-71
2023/03/17 09:08:21;;;;;;;2.97;1.58;;;;;;;27.18;26.58;98302.28;4979254;28;20094;-71
2023/03/17 09:10:47;;;;;;;2.97;1.53;;;;;;;27.16;26.09;98297.00;4976145;28;20030;-66
2023/03/17 09:13:14;;;;;;;2.63;1.20;;;;;;;26.45;26.72;98303.47;4975134;28;20289;-65
2023/03/17 09:15:39;;;;;;;3.13;1.55;;;;;;;26.75;26.69;98301.03;4979237;28;20030;-65
2023/03/17 09:18:07;;;;;;;2.03;1.50;;;;;;;26.58;27.46;98299.00;4985213;28;20025;-66
2023/03/17 09:20:33;;;;;;;2.67;1.35;;;;;;;27.38;26.94;98295.25;4986423;28;20093;-62
2023/03/17 09:22:59;;;;;;;5.15;1.55;;;;;;;27.07;27.00;98304.53;4977105;28;20026;-63
2023/03/17 09:25:26;;;;;;;3.63;1.50;;;;;;;26.16;28.03;98305.97;4976070;28;20036;-63
2023/03/17 09:27:52;;;;;;;2.25;1.60;;;;;;;25.62;28.36;98300.34;4976411;28;20022;-62
2023/03/17 09:30:17;;;;;;;2.42;1.48;;;;;;;25.59;28.90;98292.69;4969593;28;20034;-62
2023/03/17 09:32:45;;;;;;;4.50;1.80;;;;;;;25.54;28.60;98285.34;4975408;28;20034;-62
2023/03/17 09:35:11;;;;;;;4.10;1.58;;;;;;;25.44;28.50;98301.34;4970298;28;20022;-66
2023/03/17 09:37:37;;;;;;;5.07;1.70;;;;;;;26.19;28.36;98294.22;4968734;28;20385;-63
2023/03/17 09:40:07;;;;;;;3.83;1.63;;;;;;;27.90;26.62;98300.78;4967293;28;20043;-63
2023/03/17 09:42:33;;;;;;;3.75;1.60;;;;;;;30.85;25.14;98289.41;4969640;28;20034;-63
2023/03/17 09:45:12;;;;;;;3.58;1.40;;;;;;;30.08;25.69;98291.97;4983744;28;20434;-62
2023/03/17 09:47:37;;;;;;;5.55;1.92;;;;;;;32.22;24.28;98291.44;4972941;28;20046;-63
2023/03/17 09:50:17;;;;;;;2.53;1.23;;;;;;;32.16;23.86;98292.88;4979484;28;20026;-63
2023/03/17 09:52:44;;;;;;;2.70;1.40;;;;;;;31.94;23.31;98292.31;4969272;28;20034;-63
2023/03/17 09:55:35;;;;;;;3.45;1.80;;;;;;;29.32;25.28;98291.19;4986271;28;20627;-63
2023/03/17 09:58:02;;;;;;;3.85;1.20;;;;;;;29.39;25.72;98288.63;4972922;28;20039;-63
2023/03/17 10:00:29;;;;;;;3.30;1.40;;;;;;;30.42;25.67;98285.22;4970368;28;20034;-63
2023/03/17 10:02:56;;;;;;;4.07;1.25;;;;;;;30.85;24.54;98289.41;4969382;28;20441;-64
2023/03/17 10:05:22;;;;;;;3.22;1.50;;;;;;;28.53;26.27;98289.97;4980717;28;20026;-63
2023/03/17 10:07:56;;;;;;;3.45;1.38;;;;;;;25.65;28.23;98283.13;4991085;28;20489;-63
2023/03/17 10:10:32;;;;;;;9.02;1.75;;;;;;;25.49;28.96;98277.16;4976113;28;20030;-63
2023/03/17 10:13:16;;;;;;;8.35;1.90;;;;;;;25.88;28.32;98278.41;4977185;28;20371;-63
2023/03/17 10:15:53;;;;;;;3.83;1.40;;;;;;;24.03;29.92;98286.28;4968644;28;20058;-63
2023/03/17 10:18:25;;;;;;;2.70;1.50;;;;;;;24.41;30.20;98280.56;4981770;28;20025;-64
2023/03/17 10:20:58;;;;;;;2.50;1.70;;;;;;;26.22;28.54;98266.66;4969993;28;20045;-66
2023/03/17 10:23:28;;;;;;;3.58;1.55;;;;;;;27.70;27.68;98255.84;4975045;28;20025;-64
2023/03/17 10:26:03;;;;;;;3.10;1.40;;;;;;;30.14;25.78;98257.91;4969772;28;20038;-63
2023/03/17 10:28:34;;;;;;;2.88;1.67;;;;;;;30.21;26.35;98253.72;4973485;28;20062;-63
2023/03/17 10:31:25;;;;;;;4.40;1.45;;;;;;;31.33;24.53;98253.34;4972366;28;20444;-63
2023/03/17 10:33:52;;;;;;;7.00;1.60;;;;;;;32.60;23.85;98250.84;4971230;28;20042;-60
2023/03/17 10:36:33;;;;;;;3.70;1.50;;;;;;;34.59;22.38;98244.91;4970102;28;20153;-61
2023/03/17 10:39:04;;;;;;;4.65;1.20;;;;;;;33.36;22.51;98240.97;4972709;28;21762;-62
2023/03/17 10:41:33;;;;;;;3.05;1.30;;;;;;;29.72;24.49;98240.50;4977162;28;20042;-61
2023/03/17 10:43:59;;;;;;;1.92;1.08;;;;;;;28.47;26.73;98242.06;4989149;28;20477;-62
2023/03/17 10:46:28;;;;;;;4.32;1.20;;;;;;;27.04;28.12;98247.69;4973239;28;20038;-61
2023/03/17 10:49:05;;;;;;;3.60;1.40;;;;;;;26.63;27.60;98237.00;4975056;28;20030;-63
2023/03/17 10:51:32;;;;;;;2.53;1.23;;;;;;;26.95;27.67;98235.72;4984686;28;20064;-62
2023/03/17 10:54:17;;;;;;;2.80;1.38;;;;;;;27.16;27.67;98240.66;4966170;28;20034;-63
2023/03/17 10:56:47;;;;;;;6.05;1.35;;;;;;;26.35;27.97;98231.66;4975269;28;20024;-62
2023/03/17 10:59:40;;;;;;;5.03;1.42;;;;;;;24.01;30.12;98250.66;4975243;28;20496;-62
2023/03/17 11:02:14;;;;;;;3.50;1.58;;;;;;;22.65;32.12;98252.47;4962205;28;20042;-62
2023/03/17 11:04:42;;;;;;;3.15;1.52;;;;;;;21.64;34.07;98250.53;4977368;28;20057;-62
2023/03/17 11:07:19;;;;;;;4.40;1.27;;;;;;;22.77;33.10;98241.84;4988875;28;20026;-62
2023/03/17 11:09:54;;;;;;;4.65;1.40;;;;;;;23.54;32.22;98230.47;4975909;28;20030;-62
2023/03/17 11:12:33;;;;;;;3.38;1.50;;;;;;;25.06;31.16;98236.03;4971152;28;20042;-62
2023/03/17 11:15:07;;;;;;;4.03;1.48;;;;;;;25.85;30.26;98223.63;4976227;28;20058;-62
2023/03/17 11:17:44;;;;;;;2.80;1.83;;;;;;;25.18;30.53;98223.63;4973818;28;20033;-61
2023/03/17 11:20:58;;;;;;;8.15;1.42;;;;;;;26.98;29.52;98212.06;4972345;28;20126;-62
2023/03/17 11:23:47;;;;;;;4.20;1.30;;;;;;;26.58;29.84;98206.63;4974783;28;20026;-61
2023/03/17 11:26:47;;;;;;;3.35;1.30;;;;;;;24.52;30.02;98207.34;4971400;28;20751;-62
2023/03/17 11:29:34;;;;;;;4.85;1.20;;;;;;;24.55;31.11;98203.16;4965472;28;20022;-62
2023/03/17 11:32:21;;;;;;;3.05;1.15;;;;;;;24.64;31.16;98196.59;4975583;28;20405;-62
2023/03/17 11:35:09;;;;;;;2.58;1.08;;;;;;;25.28;30.54;98195.69;4964311;28;20104;-62
2023/03/17 11:38:12;;;;;;;3.00;1.02;;;;;;;23.72;31.82;98203.13;4981580;28;20034;-62
2023/03/17 11:40:50;;;;;;;3.60;1.27;;;;;;;24.24;31.86;98198.25;4987077;28;20073;-62
2023/03/17 11:43:28;;;;;;;2.25;0.95;;;;;;;23.72;32.21;98195.66;4990114;28;20041;-62
2023/03/17 11:46:26;;;;;;;4.03;1.30;;;;;;;23.50;32.24;98192.72;4976617;28;20066;-62
2023/03/17 11:49:02;;;;;;;3.70;1.30;;;;;;;23.63;34.76;98189.16;4976176;28;20030;-62
2023/03/17 11:51:49;;;;;;;2.58;0.90;;;;;;;24.54;33.97;98180.22;4995158;28;20285;-62
2023/03/17 11:54:49;;;;;;;3.30;1.10;;;;;;;25.05;32.17;98189.31;4986717;28;20121;-62
2023/03/17 11:57:31;;;;;;;3.20;1.08;;;;;;;25.46;32.99;98175.28;4928499;28;20042;-57
2023/03/17 12:00:19;;;;;;;3.60;1.08;;;;;;;26.32;33.83;98176.81;4980625;28;20105;-61
2023/03/17 12:03:06;;;;;;;3.20;1.37;;;;;;;26.09;33.62;98166.97;4976833;28;20026;-60
2023/03/17 12:05:34;;;;;;;4.75;1.42;;;;;;;26.52;32.24;98169.09;4986032;28;20050;-61
2023/03/17 12:08:08;;;;;;;1.35;0.90;;;;;;;27.71;31.35;98176.84;4972473;28;20026;-61